Terminal Aerodrome Forecast
Issued by NWS Goodland, KS

Home | Current Version | Previous Version | Text Only | Print | Product List | Glossary On
Versions: 1 2 3 4 5 6 7 8 9 10 11 12 13 14
477
FTUS43 KGLD 101728
TAFGLD
TAF
KGLD 101728Z 1018/1118 31015G23KT P6SM SKC
     FM110000 30010KT P6SM SKC
     FM111200 27007KT P6SM FEW250=

USA.gov is the U.S. government's official web portal to all federal, state and local government web resources and services.